Time;durP1;ratioP1;P1;durP2;ratioP2;P2;SDS_P1;SDS_P2;PMS_P1;PMS_P2;Temp;Humidity;BMP_temperature;BMP_pressure;BME280_temperature;BME280_humidity;BME280_pressure;Samples;Min_cycle;Max_cycle;Signal;HPM_P1;HPM_P2
2022/11/07 00:01:09;;;;;;;3.23;2.23;;;;;;;;;;5094014;28;20198;-45
2022/11/07 00:03:36;;;;;;;2.67;2.10;;;;;;;;;;5092959;28;20199;-45
2022/11/07 00:06:03;;;;;;;2.97;2.47;;;;;;;;;;5093809;28;20673;-45
2022/11/07 00:08:32;;;;;;;3.37;2.13;;;;;;;;;;5093384;28;20226;-45
2022/11/07 00:10:59;;;;;;;4.13;2.30;;;;;;;;;;5093658;28;20286;-44
2022/11/07 00:13:26;;;;;;;4.40;2.07;;;;;;;;;;5093547;28;20576;-45
2022/11/07 00:15:53;;;;;;;2.07;1.90;;;;;;;;;;5093660;28;20227;-46
2022/11/07 00:18:19;;;;;;;3.07;2.10;;;;;;;;;;5093651;28;20243;-45
2022/11/07 00:20:45;;;;;;;2.77;2.17;;;;;;;;;;5093594;28;20288;-47
2022/11/07 00:23:12;;;;;;;3.37;2.20;;;;;;;;;;5092968;28;20274;-45
2022/11/07 00:25:38;;;;;;;3.30;2.10;;;;;;;;;;5093743;28;20227;-45
2022/11/07 00:28:04;;;;;;;3.07;2.27;;;;;;;;;;5093731;28;20611;-45
2022/11/07 00:30:30;;;;;;;2.93;2.20;;;;;;;;;;5093486;28;20238;-45
2022/11/07 00:32:56;;;;;;;3.00;2.00;;;;;;;;;;5093425;28;20219;-45
2022/11/07 00:35:22;;;;;;;2.93;2.47;;;;;;;;;;5092807;28;20287;-45
2022/11/07 00:37:48;;;;;;;2.40;1.87;;;;;;;;;;5093177;28;20215;-45
2022/11/07 00:40:16;;;;;;;2.93;1.83;;;;;;;;;;5092657;28;20732;-45
2022/11/07 00:42:42;;;;;;;5.07;2.07;;;;;;;;;;5093286;28;20565;-45
2022/11/07 00:45:10;;;;;;;2.77;2.13;;;;;;;;;;5092338;28;20202;-45
2022/11/07 00:47:36;;;;;;;3.40;2.07;;;;;;;;;;5093227;28;20278;-45
2022/11/07 00:50:03;;;;;;;2.33;1.90;;;;;;;;;;5092375;28;20547;-45
2022/11/07 00:52:29;;;;;;;2.57;2.10;;;;;;;;;;5093067;28;20286;-45
2022/11/07 00:54:55;;;;;;;4.37;2.30;;;;;;;;;;5092620;28;20222;-45
2022/11/07 00:57:23;;;;;;;4.13;2.10;;;;;;;;;;5091980;28;20228;-45
2022/11/07 00:59:49;;;;;;;2.27;2.00;;;;;;;;;;5092203;28;20241;-45
2022/11/07 01:02:15;;;;;;;3.40;2.30;;;;;;;;;;5092460;28;20179;-46
2022/11/07 01:07:25;;;;;;;3.23;2.10;;;;;;;;;;5092174;28;20206;-45
2022/11/07 01:09:51;;;;;;;2.40;2.10;;;;;;;;;;5092243;28;20195;-46
2022/11/07 01:12:17;;;;;;;3.97;2.07;;;;;;;;;;5090424;28;20206;-45
2022/11/07 01:14:45;;;;;;;3.07;2.00;;;;;;;;;;5090958;28;20282;-45
2022/11/07 01:17:11;;;;;;;4.70;2.00;;;;;;;;;;5091902;28;20612;-44
2022/11/07 01:19:37;;;;;;;2.60;1.93;;;;;;;;;;5092436;28;20752;-45
2022/11/07 01:22:03;;;;;;;3.03;2.17;;;;;;;;;;5092399;28;20612;-45
2022/11/07 01:24:29;;;;;;;2.90;1.97;;;;;;;;;;5092007;28;20199;-45
2022/11/07 01:26:55;;;;;;;2.20;2.00;;;;;;;;;;5092431;28;20199;-46
2022/11/07 01:29:21;;;;;;;2.30;1.90;;;;;;;;;;5092240;28;20195;-45
2022/11/07 01:31:48;;;;;;;4.43;2.30;;;;;;;;;;5092379;28;20234;-46
2022/11/07 01:34:16;;;;;;;2.47;1.93;;;;;;;;;;5092219;28;20730;-46
2022/11/07 01:36:42;;;;;;;2.43;1.90;;;;;;;;;;5092039;28;20252;-46
2022/11/07 01:39:08;;;;;;;4.33;2.20;;;;;;;;;;5091100;28;20295;-46
2022/11/07 01:41:35;;;;;;;3.50;2.27;;;;;;;;;;5091846;28;20190;-45
2022/11/07 01:44:03;;;;;;;4.40;2.03;;;;;;;;;;5092264;28;20247;-45
2022/11/07 01:46:31;;;;;;;2.40;2.03;;;;;;;;;;5091709;28;20631;-46
2022/11/07 01:49:02;;;;;;;3.20;2.20;;;;;;;;;;5092071;28;20186;-45
2022/11/07 01:51:29;;;;;;;3.03;2.10;;;;;;;;;;5091903;28;20245;-46
2022/11/07 01:53:55;;;;;;;4.97;2.63;;;;;;;;;;5091567;28;20198;-45
2022/11/07 01:56:23;;;;;;;5.53;2.43;;;;;;;;;;5091972;28;20237;-46
2022/11/07 01:58:50;;;;;;;2.33;2.00;;;;;;;;;;5091151;28;20635;-46
2022/11/07 02:01:17;;;;;;;5.03;2.30;;;;;;;;;;5091883;28;20668;-46
2022/11/07 02:03:43;;;;;;;3.77;2.10;;;;;;;;;;5091797;28;20596;-46
2022/11/07 02:06:14;;;;;;;2.47;2.10;;;;;;;;;;5091916;28;20694;-45
2022/11/07 02:08:41;;;;;;;3.37;2.07;;;;;;;;;;5090900;28;20221;-45
2022/11/07 02:11:08;;;;;;;5.17;2.27;;;;;;;;;;5090946;28;20210;-46
2022/11/07 02:13:34;;;;;;;3.53;2.03;;;;;;;;;;5091575;28;20202;-46
2022/11/07 02:16:01;;;;;;;4.67;2.43;;;;;;;;;;5091366;28;20202;-45
2022/11/07 02:18:28;;;;;;;5.73;2.30;;;;;;;;;;5091094;28;20226;-45
2022/11/07 02:20:54;;;;;;;8.20;2.33;;;;;;;;;;5091837;28;20190;-46
2022/11/07 02:23:26;;;;;;;4.03;2.00;;;;;;;;;;5091295;28;20228;-45
2022/11/07 02:25:53;;;;;;;4.90;2.57;;;;;;;;;;5091104;28;20195;-46
2022/11/07 02:28:20;;;;;;;3.63;2.30;;;;;;;;;;5090847;28;20194;-45
2022/11/07 02:30:46;;;;;;;4.30;2.53;;;;;;;;;;5091764;28;20240;-45
2022/11/07 02:33:16;;;;;;;6.10;2.17;;;;;;;;;;5091574;28;20195;-46
2022/11/07 02:35:43;;;;;;;3.17;2.10;;;;;;;;;;5091436;28;20712;-46
2022/11/07 02:38:11;;;;;;;5.10;2.30;;;;;;;;;;5091234;28;20218;-46
2022/11/07 02:40:38;;;;;;;7.30;2.50;;;;;;;;;;5091629;28;20199;-46
2022/11/07 02:43:06;;;;;;;2.67;2.00;;;;;;;;;;5091517;28;20577;-46
2022/11/07 02:45:33;;;;;;;3.63;2.10;;;;;;;;;;5091518;28;20227;-46
2022/11/07 02:47:59;;;;;;;4.17;2.30;;;;;;;;;;5091567;28;20289;-46
2022/11/07 02:50:25;;;;;;;4.73;2.40;;;;;;;;;;5091277;28;20230;-46
2022/11/07 02:52:51;;;;;;;2.80;2.10;;;;;;;;;;5091403;28;20195;-45
2022/11/07 02:55:17;;;;;;;4.73;2.40;;;;;;;;;;5091335;28;20679;-46
2022/11/07 02:57:43;;;;;;;5.47;2.50;;;;;;;;;;5091522;28;20198;-46
2022/11/07 03:00:12;;;;;;;3.53;2.27;;;;;;;;;;5090790;28;20194;-45
2022/11/07 03:02:38;;;;;;;4.97;2.30;;;;;;;;;;5090594;28;20554;-46
2022/11/07 03:05:05;;;;;;;3.27;2.03;;;;;;;;;;5091370;28;20226;-45
2022/11/07 03:07:31;;;;;;;4.07;2.27;;;;;;;;;;5091079;28;20202;-46
2022/11/07 03:09:57;;;;;;;5.27;2.47;;;;;;;;;;5091306;28;20191;-46
2022/11/07 03:12:23;;;;;;;3.40;1.90;;;;;;;;;;5091257;28;20199;-46
2022/11/07 03:14:49;;;;;;;2.97;2.13;;;;;;;;;;5091121;28;20680;-46
2022/11/07 03:17:17;;;;;;;3.07;2.20;;;;;;;;;;5091147;28;20205;-46
2022/11/07 03:19:43;;;;;;;5.93;2.17;;;;;;;;;;5091871;28;20227;-46
2022/11/07 03:22:09;;;;;;;4.80;2.30;;;;;;;;;;5094617;28;20213;-46
2022/11/07 03:24:35;;;;;;;6.20;2.77;;;;;;;;;;5094907;28;20202;-46
2022/11/07 03:27:01;;;;;;;4.03;2.33;;;;;;;;;;5094758;28;20195;-46
2022/11/07 03:29:27;;;;;;;5.00;2.50;;;;;;;;;;5093816;28;20645;-46
2022/11/07 03:31:53;;;;;;;4.00;2.27;;;;;;;;;;5093238;28;20198;-45
2022/11/07 03:34:20;;;;;;;5.13;2.47;;;;;;;;;;5093745;28;20194;-46
2022/11/07 03:36:46;;;;;;;5.00;2.30;;;;;;;;;;5094458;28;20256;-45
2022/11/07 03:39:12;;;;;;;5.80;2.63;;;;;;;;;;5094591;28;20271;-46
2022/11/07 03:41:38;;;;;;;5.83;2.60;;;;;;;;;;5094694;28;20202;-45
2022/11/07 03:44:04;;;;;;;5.57;2.33;;;;;;;;;;5094628;28;20199;-45
2022/11/07 03:46:31;;;;;;;5.00;2.90;;;;;;;;;;5094616;28;20277;-45
2022/11/07 03:48:57;;;;;;;2.93;2.37;;;;;;;;;;5094553;28;20236;-45
2022/11/07 03:51:24;;;;;;;3.03;2.30;;;;;;;;;;5094122;28;20597;-45
2022/11/07 03:53:50;;;;;;;2.83;2.53;;;;;;;;;;5094277;28;20792;-45
2022/11/07 03:56:16;;;;;;;3.97;2.23;;;;;;;;;;5094299;28;20201;-44
2022/11/07 03:58:42;;;;;;;5.00;2.43;;;;;;;;;;5094108;28;20261;-45
2022/11/07 04:01:12;;;;;;;3.67;2.10;;;;;;;;;;5094009;28;20199;-45
2022/11/07 04:03:38;;;;;;;4.47;2.20;;;;;;;;;;5094212;28;20187;-45
2022/11/07 04:06:04;;;;;;;5.20;2.33;;;;;;;;;;5094128;28;20199;-45
2022/11/07 04:08:32;;;;;;;4.33;2.33;;;;;;;;;;5094018;28;20242;-45
2022/11/07 04:10:58;;;;;;;3.90;2.30;;;;;;;;;;5094095;28;20238;-45
2022/11/07 04:18:54;;;;;;;4.23;2.27;;;;;;;;;;5093783;28;20222;-45
2022/11/07 04:21:20;;;;;;;4.87;2.23;;;;;;;;;;5093595;28;20284;-45
2022/11/07 04:23:47;;;;;;;4.80;2.10;;;;;;;;;;5093510;28;20195;-45
2022/11/07 04:28:58;;;;;;;3.60;2.10;;;;;;;;;;5093302;28;20817;-45
2022/11/07 04:31:24;;;;;;;4.60;2.47;;;;;;;;;;5092310;28;20195;-45
2022/11/07 04:33:51;;;;;;;3.70;2.10;;;;;;;;;;5093360;28;20207;-45
2022/11/07 04:36:17;;;;;;;2.93;1.70;;;;;;;;;;5093249;28;20248;-46
2022/11/07 04:38:43;;;;;;;3.97;2.30;;;;;;;;;;5091981;28;20277;-45
2022/11/07 04:41:18;;;;;;;5.80;2.23;;;;;;;;;;5093171;28;20656;-45
2022/11/07 04:43:44;;;;;;;4.20;2.37;;;;;;;;;;5093338;28;20244;-46
2022/11/07 04:46:10;;;;;;;4.77;2.00;;;;;;;;;;5093059;28;20206;-45
2022/11/07 04:48:36;;;;;;;3.83;2.10;;;;;;;;;;5093042;28;20802;-45
2022/11/07 04:51:02;;;;;;;5.23;2.30;;;;;;;;;;5092753;28;20261;-45
2022/11/07 04:53:28;;;;;;;4.73;2.27;;;;;;;;;;5092872;28;20213;-45
2022/11/07 04:55:54;;;;;;;5.60;2.33;;;;;;;;;;5093225;28;20305;-45
2022/11/07 04:58:21;;;;;;;2.97;2.20;;;;;;;;;;5092794;28;20232;-45
2022/11/07 05:00:47;;;;;;;4.13;2.47;;;;;;;;;;5092709;28;20566;-45
2022/11/07 05:03:13;;;;;;;3.90;1.97;;;;;;;;;;5092572;28;20658;-45
2022/11/07 05:05:39;;;;;;;4.33;2.07;;;;;;;;;;5092771;28;20199;-45
2022/11/07 05:08:05;;;;;;;4.67;2.10;;;;;;;;;;5092509;28;20218;-45
2022/11/07 05:10:31;;;;;;;5.17;2.07;;;;;;;;;;5092623;28;20748;-45
2022/11/07 05:12:58;;;;;;;5.23;2.00;;;;;;;;;;5092572;28;20668;-45
2022/11/07 05:15:25;;;;;;;3.70;2.00;;;;;;;;;;5092440;28;20194;-45
2022/11/07 05:17:51;;;;;;;4.67;2.07;;;;;;;;;;5092440;28;20210;-45
2022/11/07 05:20:26;;;;;;;4.43;1.97;;;;;;;;;;5092326;28;20222;-45
2022/11/07 05:25:37;;;;;;;7.57;2.60;;;;;;;;;;5092291;28;20569;-45
2022/11/07 05:28:03;;;;;;;4.83;2.50;;;;;;;;;;5092147;28;20202;-45
2022/11/07 05:30:30;;;;;;;3.30;1.90;;;;;;;;;;5092208;28;20227;-46
2022/11/07 05:32:56;;;;;;;8.50;2.87;;;;;;;;;;5091214;28;20207;-45
2022/11/07 05:35:23;;;;;;;4.17;2.20;;;;;;;;;;5092125;28;20199;-45
2022/11/07 05:37:49;;;;;;;3.97;2.30;;;;;;;;;;5092277;28;20195;-45
2022/11/07 05:40:15;;;;;;;4.67;2.27;;;;;;;;;;5091825;28;20629;-45
2022/11/07 05:42:41;;;;;;;9.03;2.97;;;;;;;;;;5091777;28;20716;-45
2022/11/07 05:45:07;;;;;;;4.67;2.43;;;;;;;;;;5091931;28;20198;-47
2022/11/07 05:47:35;;;;;;;5.43;2.47;;;;;;;;;;5092101;28;20201;-46
2022/11/07 05:50:01;;;;;;;6.17;2.40;;;;;;;;;;5091880;28;20282;-46
2022/11/07 05:52:27;;;;;;;4.73;2.30;;;;;;;;;;5091832;28;20292;-45
2022/11/07 05:54:53;;;;;;;5.37;2.47;;;;;;;;;;5091869;28;20279;-45
2022/11/07 05:57:19;;;;;;;4.63;2.30;;;;;;;;;;5091880;28;20268;-45
2022/11/07 05:59:45;;;;;;;2.90;2.27;;;;;;;;;;5091628;28;20708;-45
2022/11/07 06:02:11;;;;;;;6.10;2.80;;;;;;;;;;5091406;28;20757;-45
2022/11/07 06:04:38;;;;;;;5.33;2.83;;;;;;;;;;5091641;28;20234;-45
2022/11/07 06:07:04;;;;;;;6.00;2.73;;;;;;;;;;5091616;28;20228;-45
2022/11/07 06:09:30;;;;;;;5.20;2.80;;;;;;;;;;5091472;28;20626;-45
2022/11/07 06:11:56;;;;;;;6.43;2.97;;;;;;;;;;5091177;28;20613;-45
2022/11/07 06:14:22;;;;;;;6.83;2.60;;;;;;;;;;5090977;28;20202;-45
2022/11/07 06:16:48;;;;;;;4.53;2.53;;;;;;;;;;5091096;28;20194;-45
2022/11/07 06:19:15;;;;;;;5.67;3.63;;;;;;;;;;5091092;28;20264;-45
2022/11/07 06:21:42;;;;;;;10.50;5.30;;;;;;;;;;5091063;28;20230;-45
2022/11/07 06:24:09;;;;;;;7.33;3.43;;;;;;;;;;5091256;28;20297;-45
2022/11/07 06:26:35;;;;;;;6.30;3.53;;;;;;;;;;5091273;28;20289;-46
2022/11/07 06:29:01;;;;;;;7.10;3.97;;;;;;;;;;5091372;28;20215;-47
2022/11/07 06:31:27;;;;;;;6.70;2.60;;;;;;;;;;5091563;28;20210;-46
2022/11/07 06:33:53;;;;;;;9.83;5.13;;;;;;;;;;5091377;28;20221;-46
2022/11/07 06:36:19;;;;;;;10.23;5.57;;;;;;;;;;5091317;28;20556;-46
2022/11/07 06:38:51;;;;;;;11.00;5.00;;;;;;;;;;5091134;28;20229;-46
2022/11/07 06:41:17;;;;;;;10.50;5.20;;;;;;;;;;5091180;28;20298;-47
2022/11/07 06:43:43;;;;;;;6.93;3.60;;;;;;;;;;5091422;28;20190;-47
2022/11/07 06:46:10;;;;;;;6.33;2.60;;;;;;;;;;5090809;28;20304;-46
2022/11/07 06:48:37;;;;;;;8.57;4.67;;;;;;;;;;5089943;28;20684;-45
2022/11/07 06:51:03;;;;;;;9.10;2.73;;;;;;;;;;5090982;28;20737;-45
2022/11/07 06:53:29;;;;;;;4.30;2.30;;;;;;;;;;5090828;28;20657;-46
2022/11/07 06:55:59;;;;;;;4.67;2.30;;;;;;;;;;5094873;28;20205;-46
2022/11/07 06:58:25;;;;;;;5.17;2.47;;;;;;;;;;5095065;28;20558;-45
2022/11/07 07:00:51;;;;;;;3.10;2.10;;;;;;;;;;5095242;28;20211;-47
2022/11/07 07:03:17;;;;;;;7.00;2.43;;;;;;;;;;5095082;28;20219;-47
2022/11/07 07:05:43;;;;;;;5.60;2.43;;;;;;;;;;5095315;28;20194;-46
2022/11/07 07:08:10;;;;;;;7.43;2.60;;;;;;;;;;5094941;28;20219;-47
2022/11/07 07:10:37;;;;;;;5.33;2.10;;;;;;;;;;5095010;28;20199;-47
2022/11/07 07:13:04;;;;;;;6.67;2.37;;;;;;;;;;5094899;28;20519;-47
2022/11/07 07:15:31;;;;;;;5.03;2.60;;;;;;;;;;5094791;28;20683;-47
2022/11/07 07:17:58;;;;;;;8.57;2.37;;;;;;;;;;5094856;28;20222;-47
2022/11/07 07:20:24;;;;;;;6.17;2.73;;;;;;;;;;5094494;28;20223;-47
2022/11/07 07:22:50;;;;;;;6.23;2.43;;;;;;;;;;5094495;28;20203;-47
2022/11/07 07:25:16;;;;;;;5.33;2.37;;;;;;;;;;5092304;28;20203;-47
2022/11/07 07:27:42;;;;;;;4.50;2.20;;;;;;;;;;5092999;28;20198;-47
2022/11/07 07:30:11;;;;;;;6.33;2.30;;;;;;;;;;5093928;28;20191;-47
2022/11/07 07:32:37;;;;;;;6.13;2.60;;;;;;;;;;5094489;28;20294;-46
2022/11/07 07:35:03;;;;;;;8.37;2.90;;;;;;;;;;5093358;28;20528;-47
2022/11/07 07:37:29;;;;;;;5.83;2.30;;;;;;;;;;5094190;28;20191;-47
2022/11/07 07:39:56;;;;;;;8.43;2.20;;;;;;;;;;5094398;28;20229;-47
2022/11/07 07:42:22;;;;;;;5.83;3.03;;;;;;;;;;5094306;28;20209;-47
2022/11/07 07:44:48;;;;;;;7.80;2.30;;;;;;;;;;5094510;28;20195;-50
2022/11/07 07:47:15;;;;;;;10.13;2.93;;;;;;;;;;5093471;28;20544;-47
2022/11/07 07:49:41;;;;;;;4.37;2.10;;;;;;;;;;5094059;28;20297;-47
2022/11/07 07:52:07;;;;;;;7.47;2.43;;;;;;;;;;5093897;28;20284;-47
2022/11/07 07:54:33;;;;;;;4.07;2.23;;;;;;;;;;5094098;28;20214;-45
2022/11/07 07:57:00;;;;;;;6.03;2.33;;;;;;;;;;5094119;28;20252;-45
2022/11/07 07:59:26;;;;;;;5.70;2.00;;;;;;;;;;5093551;28;20312;-45
2022/11/07 08:01:52;;;;;;;6.87;2.20;;;;;;;;;;5093933;28;20231;-46
2022/11/07 08:04:20;;;;;;;7.03;2.20;;;;;;;;;;5094061;28;20245;-45
2022/11/07 08:06:46;;;;;;;6.80;2.17;;;;;;;;;;5092512;28;20195;-50
2022/11/07 08:09:12;;;;;;;3.33;1.87;;;;;;;;;;5092160;28;20234;-47
2022/11/07 08:11:38;;;;;;;6.67;2.60;;;;;;;;;;5093844;28;20665;-46
2022/11/07 08:14:04;;;;;;;6.20;2.33;;;;;;;;;;5093887;28;20206;-45
2022/11/07 08:16:30;;;;;;;5.03;2.30;;;;;;;;;;5093574;28;20195;-45
2022/11/07 08:18:56;;;;;;;7.87;2.60;;;;;;;;;;5094041;28;20214;-46
2022/11/07 08:21:23;;;;;;;5.73;2.20;;;;;;;;;;5092596;28;20665;-45
2022/11/07 08:23:52;;;;;;;3.23;2.20;;;;;;;;;;5093029;28;20306;-46
2022/11/07 08:26:18;;;;;;;6.10;2.23;;;;;;;;;;5093473;28;20203;-45
2022/11/07 08:28:44;;;;;;;5.73;2.07;;;;;;;;;;5093481;28;20191;-45
2022/11/07 08:31:11;;;;;;;5.40;2.00;;;;;;;;;;5093657;28;20286;-46
2022/11/07 08:33:37;;;;;;;5.20;2.00;;;;;;;;;;5092177;28;20211;-47
2022/11/07 08:36:05;;;;;;;5.63;2.13;;;;;;;;;;5093388;28;20248;-46
2022/11/07 08:38:33;;;;;;;5.63;2.17;;;;;;;;;;5092935;28;20205;-46
2022/11/07 08:40:59;;;;;;;5.97;1.97;;;;;;;;;;5093349;28;20222;-46
2022/11/07 08:43:26;;;;;;;8.80;2.60;;;;;;;;;;5093085;28;20202;-45
2022/11/07 08:45:52;;;;;;;5.13;1.97;;;;;;;;;;5092988;28;20598;-45
2022/11/07 08:48:18;;;;;;;5.63;2.00;;;;;;;;;;5092513;28;20198;-48
2022/11/07 08:50:44;;;;;;;9.47;2.37;;;;;;;;;;5093012;28;20593;-47
2022/11/07 08:53:11;;;;;;;6.10;1.77;;;;;;;;;;5087348;28;20233;-47
2022/11/07 08:55:38;;;;;;;3.53;2.10;;;;;;;;;;5092046;28;20194;-47
2022/11/07 08:58:05;;;;;;;5.30;2.30;;;;;;;;;;5092491;28;20449;-47
2022/11/07 09:00:32;;;;;;;4.00;1.90;;;;;;;;;;5092611;28;20714;-47
2022/11/07 09:03:00;;;;;;;5.60;2.37;;;;;;;;;;5092419;28;20282;-48
2022/11/07 09:05:26;;;;;;;4.30;2.13;;;;;;;;;;5092058;28;20203;-47
2022/11/07 09:07:52;;;;;;;4.83;2.20;;;;;;;;;;5092501;28;20222;-47
2022/11/07 09:10:19;;;;;;;7.67;2.17;;;;;;;;;;5090545;28;20631;-47
2022/11/07 09:12:47;;;;;;;7.37;3.10;;;;;;;;;;5090968;28;20702;-46
2022/11/07 09:15:13;;;;;;;4.97;1.80;;;;;;;;;;5091377;28;20199;-47
2022/11/07 09:17:39;;;;;;;5.30;2.23;;;;;;;;;;5091519;28;20208;-46
2022/11/07 09:20:06;;;;;;;5.17;2.10;;;;;;;;;;5092600;28;20353;-46
2022/11/07 09:22:32;;;;;;;5.13;2.00;;;;;;;;;;5092409;28;20621;-46
2022/11/07 09:24:58;;;;;;;8.87;2.30;;;;;;;;;;5086280;28;20657;-46
2022/11/07 09:27:24;;;;;;;5.63;2.73;;;;;;;;;;5091026;28;20194;-45
2022/11/07 09:29:51;;;;;;;4.77;2.20;;;;;;;;;;5074711;28;20195;-45
2022/11/07 09:32:17;;;;;;;5.33;2.47;;;;;;;;;;5071992;28;20239;-45
2022/11/07 09:34:44;;;;;;;6.87;2.20;;;;;;;;;;5071767;28;20225;-46
2022/11/07 09:37:10;;;;;;;5.53;2.17;;;;;;;;;;5071733;28;20207;-45
2022/11/07 09:39:36;;;;;;;7.17;2.40;;;;;;;;;;5071777;28;20227;-45
2022/11/07 09:42:05;;;;;;;4.23;2.20;;;;;;;;;;5071410;28;20445;-46
2022/11/07 09:44:49;;;;;;;6.67;2.20;;;;;;;;;;5071514;28;20286;-45
2022/11/07 09:47:21;;;;;;;5.37;2.40;;;;;;;;;;5071349;28;20230;-47
2022/11/07 09:49:49;;;;;;;10.97;2.60;;;;;;;;;;5071538;28;20666;-47
2022/11/07 09:52:17;;;;;;;4.87;2.60;;;;;;;;;;5070700;28;20239;-47
2022/11/07 09:54:45;;;;;;;7.30;2.50;;;;;;;;;;5070883;28;20208;-47
2022/11/07 09:57:15;;;;;;;7.53;2.30;;;;;;;;;;5071968;28;20295;-47
2022/11/07 09:59:42;;;;;;;5.27;2.00;;;;;;;;;;5077659;28;20283;-48
2022/11/07 10:02:12;;;;;;;4.93;2.77;;;;;;;;;;5091856;28;20199;-48
2022/11/07 10:04:40;;;;;;;6.87;2.50;;;;;;;;;;5091323;28;20198;-48
2022/11/07 10:07:09;;;;;;;5.80;2.20;;;;;;;;;;5090998;28;20233;-49
2022/11/07 10:09:41;;;;;;;3.60;2.00;;;;;;;;;;5091369;28;20575;-48
2022/11/07 10:12:13;;;;;;;5.80;2.40;;;;;;;;;;5090232;28;20195;-47
2022/11/07 10:14:44;;;;;;;6.50;2.43;;;;;;;;;;5091666;28;20345;-48
2022/11/07 10:17:14;;;;;;;4.63;2.20;;;;;;;;;;5091904;28;20202;-48
2022/11/07 10:20:00;;;;;;;4.90;2.03;;;;;;;;;;5091829;28;20253;-48
2022/11/07 10:22:36;;;;;;;4.57;2.10;;;;;;;;;;5089385;28;20199;-48
2022/11/07 10:25:15;;;;;;;7.63;2.37;;;;;;;;;;5089854;28;20202;-49
2022/11/07 10:27:43;;;;;;;8.27;2.47;;;;;;;;;;5090408;28;20725;-47
2022/11/07 10:30:14;;;;;;;6.67;2.67;;;;;;;;;;5090870;28;20266;-48
2022/11/07 10:32:42;;;;;;;8.13;2.37;;;;;;;;;;5091502;28;20191;-47
2022/11/07 10:35:15;;;;;;;5.60;2.20;;;;;;;;;;5091697;28;20226;-47
2022/11/07 10:37:41;;;;;;;8.63;2.27;;;;;;;;;;5091252;28;20199;-47
2022/11/07 10:40:12;;;;;;;7.93;2.57;;;;;;;;;;5091467;28;20238;-51
2022/11/07 10:42:38;;;;;;;5.33;2.50;;;;;;;;;;5090385;28;20564;-48
2022/11/07 10:45:05;;;;;;;6.07;2.13;;;;;;;;;;5090916;28;20274;-48
2022/11/07 10:47:31;;;;;;;5.30;2.20;;;;;;;;;;5091219;28;20202;-47
2022/11/07 10:49:58;;;;;;;7.07;2.10;;;;;;;;;;5090822;28;20581;-48
2022/11/07 10:52:26;;;;;;;5.00;2.13;;;;;;;;;;5090058;28;20194;-48
2022/11/07 10:55:04;;;;;;;6.80;2.37;;;;;;;;;;5090298;28;20206;-48
2022/11/07 10:57:31;;;;;;;6.43;2.37;;;;;;;;;;5091309;28;20201;-47
2022/11/07 10:59:58;;;;;;;10.47;2.50;;;;;;;;;;5091215;28;20724;-48
2022/11/07 11:02:25;;;;;;;5.00;2.37;;;;;;;;;;5090362;28;20248;-48
2022/11/07 11:04:53;;;;;;;6.93;2.33;;;;;;;;;;5091078;28;20227;-47
2022/11/07 11:07:19;;;;;;;12.20;2.40;;;;;;;;;;5091100;28;20199;-48
2022/11/07 11:09:51;;;;;;;5.37;2.60;;;;;;;;;;5090981;28;20222;-47
2022/11/07 11:12:20;;;;;;;7.03;2.50;;;;;;;;;;5091192;28;20287;-47
2022/11/07 11:14:46;;;;;;;6.23;2.33;;;;;;;;;;5090924;28;20722;-48
2022/11/07 11:17:21;;;;;;;7.40;2.50;;;;;;;;;;5091126;28;20207;-47
2022/11/07 11:19:51;;;;;;;6.93;2.40;;;;;;;;;;5090550;28;20807;-48
2022/11/07 11:22:18;;;;;;;4.80;2.20;;;;;;;;;;5091022;28;20199;-48
2022/11/07 11:24:44;;;;;;;6.30;2.33;;;;;;;;;;5085568;28;20662;-48
2022/11/07 11:27:13;;;;;;;8.00;2.70;;;;;;;;;;5089354;28;20215;-48
2022/11/07 11:29:42;;;;;;;8.43;2.70;;;;;;;;;;5089136;28;20210;-48
2022/11/07 11:32:13;;;;;;;7.13;2.33;;;;;;;;;;5088822;28;20206;-48
2022/11/07 11:34:44;;;;;;;6.23;2.53;;;;;;;;;;5090579;28;20202;-49
2022/11/07 11:37:11;;;;;;;6.23;2.30;;;;;;;;;;5090291;28;20237;-48
2022/11/07 11:39:40;;;;;;;7.97;2.37;;;;;;;;;;5090484;28;20571;-48
2022/11/07 11:42:12;;;;;;;7.03;2.37;;;;;;;;;;5093874;28;20617;-48
2022/11/07 11:44:42;;;;;;;6.60;2.40;;;;;;;;;;5094339;28;20222;-48
2022/11/07 11:47:10;;;;;;;6.50;3.00;;;;;;;;;;5094138;28;20203;-48
2022/11/07 11:49:40;;;;;;;8.97;2.57;;;;;;;;;;5094251;28;20248;-49
2022/11/07 11:52:07;;;;;;;4.80;2.30;;;;;;;;;;5093684;28;20238;-48
2022/11/07 11:54:34;;;;;;;6.77;2.40;;;;;;;;;;5091290;28;20206;-48
2022/11/07 11:57:01;;;;;;;6.43;2.30;;;;;;;;;;5093918;28;20269;-48
2022/11/07 11:59:36;;;;;;;5.40;2.80;;;;;;;;;;5093610;28;20219;-47
2022/11/07 12:02:08;;;;;;;4.80;2.13;;;;;;;;;;5094000;28;20205;-47
2022/11/07 12:04:48;;;;;;;6.63;2.50;;;;;;;;;;5093611;28;20610;-47
2022/11/07 12:07:26;;;;;;;6.87;2.40;;;;;;;;;;5093581;28;20195;-49
2022/11/07 12:09:56;;;;;;;7.23;2.30;;;;;;;;;;5094000;28;20187;-47
2022/11/07 12:12:25;;;;;;;5.40;2.43;;;;;;;;;;5093720;28;20198;-48
2022/11/07 12:15:03;;;;;;;4.57;2.30;;;;;;;;;;5093631;28;20692;-47
2022/11/07 12:17:34;;;;;;;6.00;2.33;;;;;;;;;;5093528;28;20202;-48
2022/11/07 12:20:05;;;;;;;7.97;2.50;;;;;;;;;;5091460;28;20305;-48
2022/11/07 12:22:39;;;;;;;5.20;2.13;;;;;;;;;;5093669;28;20197;-48
2022/11/07 12:25:08;;;;;;;5.13;2.27;;;;;;;;;;5092025;28;20298;-48
2022/11/07 12:27:38;;;;;;;6.13;2.30;;;;;;;;;;5093361;28;20801;-49
2022/11/07 12:30:08;;;;;;;7.90;2.50;;;;;;;;;;5089391;28;20203;-47
2022/11/07 12:32:42;;;;;;;7.47;2.50;;;;;;;;;;5093754;28;20309;-47
2022/11/07 12:35:15;;;;;;;6.60;2.40;;;;;;;;;;5093761;28;20202;-47
2022/11/07 12:37:51;;;;;;;7.57;2.50;;;;;;;;;;5093116;28;20306;-47
2022/11/07 12:40:28;;;;;;;7.10;2.53;;;;;;;;;;5093575;28;20233;-50
2022/11/07 12:43:00;;;;;;;5.67;2.40;;;;;;;;;;5090771;28;20277;-49
2022/11/07 12:45:42;;;;;;;6.93;2.60;;;;;;;;;;5092863;28;20202;-50
2022/11/07 12:48:17;;;;;;;5.10;2.30;;;;;;;;;;5092561;28;20195;-50
2022/11/07 12:50:47;;;;;;;4.80;2.27;;;;;;;;;;5093064;28;20230;-48
2022/11/07 12:53:20;;;;;;;4.70;2.43;;;;;;;;;;5092280;28;20236;-48
2022/11/07 12:55:47;;;;;;;4.77;2.13;;;;;;;;;;5091921;28;20207;-46
2022/11/07 12:58:16;;;;;;;6.73;2.63;;;;;;;;;;5092209;28;20195;-47
2022/11/07 13:00:43;;;;;;;5.90;2.40;;;;;;;;;;5092164;28;20230;-48
2022/11/07 13:03:25;;;;;;;6.67;2.20;;;;;;;;;;5091754;28;20278;-47
2022/11/07 13:06:02;;;;;;;7.83;2.97;;;;;;;;;;5092364;28;20199;-47
2022/11/07 13:08:32;;;;;;;8.43;2.50;;;;;;;;;;5092142;28;20210;-48
2022/11/07 13:11:00;;;;;;;7.03;2.30;;;;;;;;;;5092485;28;20186;-47
2022/11/07 13:13:29;;;;;;;8.57;2.23;;;;;;;;;;5092476;28;20425;-47
2022/11/07 13:16:04;;;;;;;5.53;2.00;;;;;;;;;;5092078;28;20236;-48
2022/11/07 13:18:31;;;;;;;10.77;2.70;;;;;;;;;;5092240;28;20233;-47
2022/11/07 13:21:01;;;;;;;5.20;2.33;;;;;;;;;;5091744;28;20219;-48
2022/11/07 13:23:28;;;;;;;4.80;2.00;;;;;;;;;;5091724;28;20681;-48
2022/11/07 13:25:58;;;;;;;7.23;2.60;;;;;;;;;;5092050;28;20665;-48
2022/11/07 13:28:29;;;;;;;6.83;2.40;;;;;;;;;;5092471;28;20221;-48
2022/11/07 13:30:57;;;;;;;5.50;2.53;;;;;;;;;;5091968;28;20187;-48
2022/11/07 13:33:27;;;;;;;6.50;2.17;;;;;;;;;;5090906;28;20191;-48
2022/11/07 13:35:55;;;;;;;6.10;2.60;;;;;;;;;;5092073;28;20222;-48
2022/11/07 13:38:22;;;;;;;7.83;2.50;;;;;;;;;;5091076;28;20294;-48
2022/11/07 13:40:49;;;;;;;4.43;2.20;;;;;;;;;;5092149;28;20233;-46
2022/11/07 13:43:17;;;;;;;4.90;2.23;;;;;;;;;;5091919;28;20195;-49
2022/11/07 13:45:47;;;;;;;7.57;2.40;;;;;;;;;;5091694;28;20568;-48
2022/11/07 13:48:16;;;;;;;5.13;3.17;;;;;;;;;;5091836;28;20230;-48
2022/11/07 13:50:44;;;;;;;5.03;2.30;;;;;;;;;;5091028;28;20247;-47
2022/11/07 13:53:16;;;;;;;5.00;2.43;;;;;;;;;;5091273;28;20221;-48
2022/11/07 13:55:45;;;;;;;7.67;2.40;;;;;;;;;;5091297;28;20237;-48
2022/11/07 13:58:12;;;;;;;4.53;2.20;;;;;;;;;;5091665;28;20195;-48
2022/11/07 14:00:38;;;;;;;4.53;2.50;;;;;;;;;;5090973;28;20534;-48
2022/11/07 14:03:04;;;;;;;5.13;2.37;;;;;;;;;;5091163;28;20502;-48
2022/11/07 14:05:33;;;;;;;5.73;2.87;;;;;;;;;;5091623;28;20195;-47
2022/11/07 14:08:00;;;;;;;5.47;2.73;;;;;;;;;;5090079;28;20215;-48
2022/11/07 14:10:29;;;;;;;4.60;2.00;;;;;;;;;;5090765;28;20217;-47
2022/11/07 14:12:59;;;;;;;4.87;2.37;;;;;;;;;;5091524;28;20263;-46
2022/11/07 14:15:25;;;;;;;6.07;2.43;;;;;;;;;;5091532;28;20218;-46
2022/11/07 14:17:54;;;;;;;5.50;2.73;;;;;;;;;;5090994;28;20290;-46
2022/11/07 14:20:21;;;;;;;4.83;2.20;;;;;;;;;;5091706;28;20222;-46
2022/11/07 14:22:47;;;;;;;4.57;2.40;;;;;;;;;;5091326;28;20206;-46
2022/11/07 14:25:18;;;;;;;3.17;1.93;;;;;;;;;;5091107;28;20618;-46
2022/11/07 14:27:46;;;;;;;3.03;2.30;;;;;;;;;;5091511;28;20287;-47
2022/11/07 14:30:15;;;;;;;5.63;2.60;;;;;;;;;;5091090;28;20241;-46
2022/11/07 14:32:45;;;;;;;5.53;2.43;;;;;;;;;;5091334;28;20226;-46
2022/11/07 14:35:17;;;;;;;4.00;2.80;;;;;;;;;;5091570;28;20199;-45
2022/11/07 14:37:43;;;;;;;3.80;2.77;;;;;;;;;;5091338;28;20202;-45
2022/11/07 14:40:09;;;;;;;5.77;3.23;;;;;;;;;;5091440;28;20272;-46
2022/11/07 14:42:36;;;;;;;2.90;2.60;;;;;;;;;;5091124;28;20668;-46
2022/11/07 14:45:05;;;;;;;5.57;2.90;;;;;;;;;;5091192;28;20203;-47
2022/11/07 14:47:32;;;;;;;7.27;3.20;;;;;;;;;;5091207;28;20573;-46
2022/11/07 14:49:58;;;;;;;6.43;3.20;;;;;;;;;;5091045;28;20209;-48
2022/11/07 14:52:26;;;;;;;6.43;3.60;;;;;;;;;;5090314;28;20225;-46
2022/11/07 14:54:58;;;;;;;4.53;2.70;;;;;;;;;;5090934;28;20249;-46
2022/11/07 14:57:24;;;;;;;7.40;3.27;;;;;;;;;;5090030;28;20679;-46
2022/11/07 14:59:50;;;;;;;5.93;3.20;;;;;;;;;;5091124;28;20317;-47